Time;durP1;ratioP1;P1;durP2;ratioP2;P2;SDS_P1;SDS_P2;PMS_P1;PMS_P2;Temp;Humidity;BMP_temperature;BMP_pressure;BME280_temperature;BME280_humidity;BME280_pressure;Samples;Min_cycle;Max_cycle;Signal;HPM_P1;HPM_P2
2022/02/24 00:00:16;;;;;;;5.95;3.50;;;4.60;79.20;;;;;;5055278;28;20067;-81
2022/02/24 00:02:43;;;;;;;7.07;3.20;;;4.60;78.90;;;;;;5071719;28;20468;-81
2022/02/24 00:05:09;;;;;;;6.63;3.53;;;4.60;78.90;;;;;;5055238;28;20384;-80
2022/02/24 00:07:35;;;;;;;6.05;3.35;;;4.60;79.00;;;;;;5073124;28;20028;-81
2022/02/24 00:10:01;;;;;;;5.97;2.85;;;4.60;79.00;;;;;;5055192;28;20047;-82
2022/02/24 00:12:26;;;;;;;7.07;3.25;;;4.60;79.20;;;;;;5055063;28;20025;-81
2022/02/24 00:14:56;;;;;;;5.57;3.03;;;4.50;79.40;;;;;;5055071;28;20086;-82
2022/02/24 00:17:23;;;;;;;6.43;2.85;;;4.50;79.50;;;;;;5055291;28;20056;-82
2022/02/24 00:19:49;;;;;;;6.28;3.63;;;4.50;79.80;;;;;;5072425;28;20116;-82
2022/02/24 00:22:15;;;;;;;7.18;2.92;;;4.60;79.70;;;;;;5054981;28;20031;-82
2022/02/24 00:24:41;;;;;;;5.35;3.05;;;4.60;79.60;;;;;;5054646;28;20378;-82
2022/02/24 00:27:06;;;;;;;7.95;3.30;;;4.60;79.50;;;;;;5073024;28;20032;-82
2022/02/24 00:29:32;;;;;;;9.30;3.13;;;4.60;79.40;;;;;;5054885;28;20029;-83
2022/02/24 00:31:58;;;;;;;6.90;3.13;;;4.60;79.00;;;;;;5054826;28;20020;-82
2022/02/24 00:34:23;;;;;;;7.15;3.28;;;4.50;79.10;;;;;;5072821;28;20029;-82
2022/02/24 00:36:53;;;;;;;6.30;2.58;;;4.60;79.10;;;;;;5071724;28;20021;-83
2022/02/24 00:39:20;;;;;;;4.50;2.45;;;4.60;78.90;;;;;;5054911;28;20381;-83
2022/02/24 00:41:46;;;;;;;4.70;2.80;;;4.60;79.10;;;;;;5072712;28;20028;-82
2022/02/24 00:44:13;;;;;;;6.32;2.78;;;4.60;79.20;;;;;;5072667;28;20099;-83
2022/02/24 00:46:39;;;;;;;5.55;2.15;;;4.60;79.30;;;;;;5054619;28;20388;-82
2022/02/24 00:49:05;;;;;;;5.65;2.70;;;4.60;79.30;;;;;;5054719;28;20148;-82
2022/02/24 00:51:31;;;;;;;5.93;2.67;;;4.60;79.20;;;;;;5054460;28;20660;-83
2022/02/24 00:53:56;;;;;;;3.55;2.45;;;4.70;79.30;;;;;;5072554;28;20154;-83
2022/02/24 00:56:22;;;;;;;4.53;2.50;;;4.70;79.40;;;;;;5072729;28;20044;-82
2022/02/24 00:58:47;;;;;;;5.97;3.00;;;4.70;79.40;;;;;;5054512;28;20025;-82
2022/02/24 01:01:13;;;;;;;4.78;2.47;;;4.60;79.40;;;;;;5072599;28;20032;-82
2022/02/24 01:03:38;;;;;;;4.43;2.60;;;4.60;79.50;;;;;;5073732;28;20027;-82
2022/02/24 01:06:04;;;;;;;5.82;2.75;;;4.50;79.50;;;;;;5058000;28;20545;-82
2022/02/24 01:08:30;;;;;;;5.20;2.38;;;4.50;79.60;;;;;;5058059;28;20029;-82
2022/02/24 01:10:55;;;;;;;5.35;2.55;;;4.50;79.40;;;;;;5058119;28;20031;-82
2022/02/24 01:13:21;;;;;;;6.32;2.70;;;4.60;79.10;;;;;;5075941;28;20055;-83
2022/02/24 01:15:46;;;;;;;4.72;2.60;;;4.60;79.20;;;;;;5074552;28;20032;-82
2022/02/24 01:18:12;;;;;;;3.70;2.42;;;4.60;79.20;;;;;;5058030;28;20024;-83
2022/02/24 01:20:38;;;;;;;4.90;2.45;;;4.60;79.20;;;;;;5058108;28;20027;-82
2022/02/24 01:23:05;;;;;;;3.90;2.22;;;4.60;79.40;;;;;;5075899;28;20039;-82
2022/02/24 01:25:32;;;;;;;7.03;2.60;;;4.50;79.50;;;;;;5075756;28;20072;-81
2022/02/24 01:27:57;;;;;;;5.90;2.80;;;4.50;79.40;;;;;;5057793;28;20067;-81
2022/02/24 01:30:23;;;;;;;4.60;2.13;;;4.50;79.30;;;;;;5075370;28;20076;-82
2022/02/24 01:32:48;;;;;;;8.10;2.67;;;4.50;79.30;;;;;;5075677;28;20024;-81
2022/02/24 01:35:14;;;;;;;4.05;2.40;;;4.50;79.40;;;;;;5075593;28;20024;-81
2022/02/24 01:37:40;;;;;;;5.45;2.20;;;4.50;79.50;;;;;;5075441;28;20025;-82
2022/02/24 01:40:07;;;;;;;4.97;2.35;;;4.50;79.50;;;;;;5057565;28;20051;-82
2022/02/24 01:42:33;;;;;;;4.90;2.60;;;4.50;79.60;;;;;;5075373;28;20051;-81
2022/02/24 01:44:58;;;;;;;3.63;2.60;;;4.50;79.70;;;;;;5075311;28;20063;-81
2022/02/24 01:47:25;;;;;;;4.88;2.38;;;4.50;79.80;;;;;;5075435;28;20021;-81
2022/02/24 01:49:50;;;;;;;4.72;2.50;;;4.50;79.90;;;;;;5075320;28;20033;-81
2022/02/24 01:52:17;;;;;;;4.50;2.10;;;4.50;79.90;;;;;;5075376;28;20039;-81
2022/02/24 01:54:43;;;;;;;3.88;2.50;;;4.40;80.00;;;;;;5075243;28;20039;-81
2022/02/24 01:57:09;;;;;;;4.38;2.20;;;4.40;80.20;;;;;;5075151;28;20017;-82
2022/02/24 01:59:35;;;;;;;6.85;2.15;;;4.50;80.20;;;;;;5075170;28;20048;-81
2022/02/24 02:02:01;;;;;;;4.38;2.20;;;4.50;80.30;;;;;;5057095;28;20107;-81
2022/02/24 02:04:27;;;;;;;5.05;2.42;;;4.50;80.50;;;;;;5075004;28;20484;-81
2022/02/24 02:06:53;;;;;;;4.40;2.22;;;4.40;80.50;;;;;;5056870;28;20121;-81
2022/02/24 02:09:20;;;;;;;6.88;2.60;;;4.40;80.50;;;;;;5074903;28;20094;-81
2022/02/24 02:11:46;;;;;;;4.93;2.42;;;4.40;80.60;;;;;;5057424;28;20024;-81
2022/02/24 02:14:12;;;;;;;3.70;2.40;;;4.50;80.70;;;;;;5074540;28;20431;-81
2022/02/24 02:16:45;;;;;;;4.40;2.42;;;4.50;80.70;;;;;;5059010;28;20025;-80
2022/02/24 02:19:11;;;;;;;4.78;2.60;;;4.50;80.70;;;;;;5056586;28;20029;-81
2022/02/24 02:21:36;;;;;;;4.43;2.50;;;4.40;80.50;;;;;;5056608;28;20016;-81
2022/02/24 02:24:03;;;;;;;3.55;2.10;;;4.40;80.70;;;;;;5074255;28;20066;-81
2022/02/24 02:26:31;;;;;;;4.97;2.50;;;4.40;80.80;;;;;;5056699;28;20021;-81
2022/02/24 02:29:01;;;;;;;9.50;2.28;;;4.40;81.00;;;;;;5056577;28;20032;-81
2022/02/24 02:31:27;;;;;;;6.10;2.67;;;4.40;81.00;;;;;;5074506;28;20024;-81
2022/02/24 02:34:04;;;;;;;4.20;2.72;;;4.50;81.20;;;;;;5056599;28;20135;-81
2022/02/24 02:36:30;;;;;;;3.97;2.15;;;4.40;81.10;;;;;;5073199;28;20035;-81
2022/02/24 02:38:56;;;;;;;3.67;2.42;;;4.40;81.30;;;;;;5056343;28;20024;-81
2022/02/24 02:41:21;;;;;;;4.88;2.30;;;4.40;81.40;;;;;;5074203;28;20423;-81
2022/02/24 02:43:48;;;;;;;4.63;2.25;;;4.40;81.70;;;;;;5056449;28;20465;-80
2022/02/24 02:46:14;;;;;;;5.80;2.70;;;4.40;82.00;;;;;;5074182;28;20028;-81
2022/02/24 02:48:39;;;;;;;5.63;2.70;;;4.40;82.10;;;;;;5073935;28;20035;-81
2022/02/24 02:51:05;;;;;;;5.78;2.65;;;4.40;82.10;;;;;;5056193;28;20060;-81
2022/02/24 02:53:30;;;;;;;9.00;3.15;;;4.50;82.10;;;;;;5056137;28;20093;-80
2022/02/24 02:55:56;;;;;;;4.38;2.70;;;4.50;82.00;;;;;;5074042;28;20024;-80
2022/02/24 02:58:21;;;;;;;8.38;3.70;;;4.40;82.10;;;;;;5074170;28;20469;-82
2022/02/24 03:00:47;;;;;;;7.30;3.22;;;4.50;82.30;;;;;;5073933;28;20532;-81
2022/02/24 03:03:12;;;;;;;5.50;3.45;;;4.50;82.10;;;;;;5056186;28;20032;-81
2022/02/24 03:05:38;;;;;;;6.30;3.55;;;4.50;81.80;;;;;;5055874;28;20024;-82
2022/02/24 03:08:05;;;;;;;5.32;3.17;;;4.50;81.90;;;;;;5073811;28;20059;-82
2022/02/24 03:10:31;;;;;;;5.72;3.17;;;4.50;82.00;;;;;;5073851;28;20082;-82
2022/02/24 03:12:56;;;;;;;7.70;3.22;;;4.50;82.10;;;;;;5055669;28;20358;-82
2022/02/24 03:15:22;;;;;;;7.05;3.30;;;4.50;82.20;;;;;;5073600;28;20059;-82
2022/02/24 03:17:49;;;;;;;5.05;3.20;;;4.50;82.30;;;;;;5055740;28;20481;-82
2022/02/24 03:20:15;;;;;;;6.60;3.78;;;4.50;82.40;;;;;;5056054;28;20435;-83
2022/02/24 03:22:41;;;;;;;7.57;4.40;;;4.50;82.80;;;;;;5073457;28;20020;-83
2022/02/24 03:25:07;;;;;;;11.90;4.57;;;4.60;83.20;;;;;;5073425;28;20063;-83
2022/02/24 03:27:33;;;;;;;11.40;4.53;;;4.60;83.70;;;;;;5055546;28;20029;-82
2022/02/24 03:29:58;;;;;;;10.32;5.40;;;4.60;83.80;;;;;;5073428;28;20090;-82
2022/02/24 03:32:24;;;;;;;17.05;6.55;;;4.70;83.80;;;;;;5055590;28;20028;-83
2022/02/24 03:34:50;;;;;;;12.98;6.60;;;4.70;83.80;;;;;;5055359;28;20401;-83
2022/02/24 03:37:16;;;;;;;9.43;5.10;;;4.70;83.40;;;;;;5055349;28;20028;-83
2022/02/24 03:39:42;;;;;;;8.50;4.65;;;4.70;83.60;;;;;;5055438;28;20485;-82
2022/02/24 03:42:08;;;;;;;6.95;4.07;;;4.70;83.20;;;;;;5055390;28;20025;-84
2022/02/24 03:44:34;;;;;;;6.30;3.72;;;4.70;83.00;;;;;;5055386;28;20020;-83
2022/02/24 03:47:00;;;;;;;6.38;4.05;;;4.70;83.20;;;;;;5055466;28;20020;-82
2022/02/24 03:49:26;;;;;;;7.72;4.07;;;4.70;83.10;;;;;;5054996;28;20034;-82
2022/02/24 03:51:51;;;;;;;7.53;3.85;;;4.70;82.80;;;;;;5055161;28;20021;-82
2022/02/24 03:54:18;;;;;;;7.03;3.70;;;4.60;83.10;;;;;;5055113;28;20052;-82
2022/02/24 03:56:44;;;;;;;8.45;4.40;;;4.60;83.50;;;;;;5055081;28;20028;-83
2022/02/24 03:59:10;;;;;;;5.43;3.33;;;4.70;84.10;;;;;;5073557;28;20028;-83
2022/02/24 04:01:36;;;;;;;8.98;4.35;;;4.60;84.20;;;;;;5055074;28;20024;-84
2022/02/24 04:04:02;;;;;;;7.47;4.53;;;4.60;84.60;;;;;;5055197;28;20031;-82
2022/02/24 04:06:27;;;;;;;9.52;4.30;;;4.60;84.60;;;;;;5055212;28;20017;-83
2022/02/24 04:08:53;;;;;;;10.15;4.72;;;4.60;84.70;;;;;;5072794;28;20033;-81
2022/02/24 04:11:19;;;;;;;8.93;5.05;;;4.70;84.70;;;;;;5054783;28;20115;-80
2022/02/24 04:13:44;;;;;;;9.27;4.72;;;4.70;84.90;;;;;;5054708;28;20469;-81
2022/02/24 04:16:10;;;;;;;12.45;5.28;;;4.60;84.90;;;;;;5055020;28;20025;-82
2022/02/24 04:18:35;;;;;;;10.10;5.10;;;4.60;84.90;;;;;;5054965;28;20473;-82
2022/02/24 04:21:01;;;;;;;11.25;5.72;;;4.70;84.90;;;;;;5055075;28;20115;-82
2022/02/24 04:23:26;;;;;;;10.77;4.82;;;4.60;84.90;;;;;;5072681;28;20016;-82
2022/02/24 04:25:52;;;;;;;8.90;4.53;;;4.60;85.00;;;;;;5054909;28;20504;-82
2022/02/24 04:28:18;;;;;;;7.47;4.68;;;4.70;85.40;;;;;;5055210;28;20035;-83
2022/02/24 04:30:43;;;;;;;11.93;5.10;;;4.60;85.20;;;;;;5072501;28;20037;-82
2022/02/24 04:33:09;;;;;;;10.30;5.32;;;4.60;85.20;;;;;;5072756;28;20027;-82
2022/02/24 04:35:35;;;;;;;7.53;4.45;;;4.60;85.20;;;;;;5054863;28;20381;-81
2022/02/24 04:38:01;;;;;;;8.05;5.10;;;4.60;85.10;;;;;;5073191;28;20025;-82
2022/02/24 04:40:26;;;;;;;8.40;5.35;;;4.70;84.80;;;;;;5076582;28;20017;-81
2022/02/24 04:42:52;;;;;;;10.10;5.10;;;4.60;84.50;;;;;;5076680;28;20025;-83
2022/02/24 04:45:17;;;;;;;11.55;5.03;;;4.60;84.50;;;;;;5076732;28;20025;-83
2022/02/24 04:47:43;;;;;;;10.30;4.82;;;4.60;84.20;;;;;;5058573;28;20032;-82
2022/02/24 04:50:10;;;;;;;8.85;4.82;;;4.60;83.60;;;;;;5058244;28;20064;-81
2022/02/24 04:52:37;;;;;;;7.85;5.15;;;4.60;83.50;;;;;;5083161;28;20504;-81
2022/02/24 04:55:06;;;;;;;7.22;4.43;;;4.60;83.40;;;;;;5076238;28;20473;-81
2022/02/24 04:57:32;;;;;;;8.00;4.72;;;4.60;83.30;;;;;;5058246;28;20024;-81
2022/02/24 04:59:58;;;;;;;8.73;4.55;;;4.50;83.40;;;;;;5058578;28;20032;-81
2022/02/24 05:02:24;;;;;;;9.65;4.93;;;4.60;83.90;;;;;;5076384;28;20044;-82
2022/02/24 05:04:50;;;;;;;11.60;5.53;;;4.60;84.00;;;;;;5058281;28;20059;-82
2022/02/24 05:07:16;;;;;;;9.68;4.95;;;4.60;83.90;;;;;;5058260;28;20032;-82
2022/02/24 05:09:42;;;;;;;10.05;5.72;;;4.60;83.90;;;;;;5076163;28;20029;-82
2022/02/24 05:12:08;;;;;;;9.85;5.00;;;4.60;83.70;;;;;;5057933;28;20021;-82
2022/02/24 05:14:34;;;;;;;7.65;4.60;;;4.60;83.50;;;;;;5075777;28;20025;-82
2022/02/24 05:16:59;;;;;;;10.73;5.70;;;4.60;83.50;;;;;;5075879;28;20070;-83
2022/02/24 05:19:25;;;;;;;8.93;5.00;;;4.60;83.20;;;;;;5075766;28;20465;-83
2022/02/24 05:21:50;;;;;;;12.43;5.85;;;4.60;83.10;;;;;;5075805;28;20101;-82
2022/02/24 05:24:16;;;;;;;10.38;5.53;;;4.50;83.00;;;;;;5057734;28;20135;-83
2022/02/24 05:26:42;;;;;;;12.07;5.28;;;4.50;82.80;;;;;;5057847;28;20024;-83
2022/02/24 05:29:08;;;;;;;8.90;5.45;;;4.50;82.90;;;;;;5057797;28;20051;-83
2022/02/24 05:31:34;;;;;;;14.45;6.20;;;4.50;82.70;;;;;;5058146;28;20489;-82
2022/02/24 05:33:59;;;;;;;9.90;5.75;;;4.50;82.80;;;;;;5057493;28;20083;-82
2022/02/24 05:36:25;;;;;;;13.70;5.82;;;4.50;82.80;;;;;;5075692;28;20036;-83
2022/02/24 05:38:51;;;;;;;11.35;5.65;;;4.50;82.80;;;;;;5075769;28;20086;-82
2022/02/24 05:41:17;;;;;;;10.13;5.32;;;4.50;82.60;;;;;;5075501;28;20376;-81
2022/02/24 05:43:44;;;;;;;12.35;5.25;;;4.50;82.50;;;;;;5075343;28;20025;-81
2022/02/24 05:46:09;;;;;;;10.43;5.32;;;4.50;82.60;;;;;;5075862;28;20461;-82
2022/02/24 05:48:35;;;;;;;12.45;5.95;;;4.50;82.30;;;;;;5057289;28;20108;-83
2022/02/24 05:51:01;;;;;;;9.70;5.60;;;4.50;82.00;;;;;;5057414;28;20054;-82
2022/02/24 05:53:26;;;;;;;11.77;6.78;;;4.50;81.50;;;;;;5075083;28;20021;-82
2022/02/24 05:55:52;;;;;;;9.57;5.53;;;4.50;81.50;;;;;;5057010;28;20020;-81
2022/02/24 05:58:17;;;;;;;10.27;5.88;;;4.40;81.10;;;;;;5057221;28;20025;-85
2022/02/24 06:00:43;;;;;;;8.77;4.93;;;4.40;81.20;;;;;;5057086;28;20031;-82
2022/02/24 06:03:08;;;;;;;10.98;5.70;;;4.30;81.90;;;;;;5075038;28;20376;-85
2022/02/24 06:05:34;;;;;;;9.23;5.55;;;4.20;82.30;;;;;;5075195;28;20020;-84
2022/02/24 06:07:59;;;;;;;10.70;4.97;;;4.20;82.30;;;;;;5074983;28;20469;-84
2022/02/24 06:10:25;;;;;;;10.20;5.07;;;4.30;82.50;;;;;;5056987;28;20029;-84
2022/02/24 06:12:51;;;;;;;10.52;5.18;;;4.30;82.70;;;;;;5056998;28;20016;-83
2022/02/24 06:15:16;;;;;;;10.10;5.50;;;4.30;82.70;;;;;;5057043;28;20476;-84
2022/02/24 06:17:42;;;;;;;8.23;4.55;;;4.40;82.40;;;;;;5074904;28;20021;-84
2022/02/24 06:20:08;;;;;;;10.13;4.53;;;4.40;82.00;;;;;;5074361;28;20107;-84
2022/02/24 06:22:33;;;;;;;10.07;5.22;;;4.50;81.80;;;;;;5074508;28;20024;-83
2022/02/24 06:24:59;;;;;;;9.25;4.72;;;4.50;81.40;;;;;;5074184;28;20044;-83
2022/02/24 06:27:25;;;;;;;10.23;4.10;;;4.60;81.30;;;;;;5074237;28;20024;-82
2022/02/24 06:29:50;;;;;;;10.77;4.07;;;4.60;80.90;;;;;;5056251;28;20090;-83
2022/02/24 06:32:16;;;;;;;13.02;4.72;;;4.70;80.80;;;;;;5074083;28;20416;-84
2022/02/24 06:34:43;;;;;;;19.15;9.35;;;4.70;80.50;;;;;;5073975;28;20485;-83
2022/02/24 06:37:10;;;;;;;23.50;11.63;;;4.80;80.30;;;;;;5056330;28;20020;-83
2022/02/24 06:39:36;;;;;;;21.40;10.27;;;4.90;80.50;;;;;;5074592;28;20029;-83
2022/02/24 06:42:01;;;;;;;21.38;9.90;;;4.90;79.20;;;;;;5074569;28;20078;-84
2022/02/24 06:44:27;;;;;;;15.13;7.18;;;4.90;79.20;;;;;;5073992;28;20028;-83
2022/02/24 06:46:53;;;;;;;11.15;5.30;;;5.00;78.70;;;;;;5073949;28;20036;-83
2022/02/24 06:49:19;;;;;;;7.85;4.10;;;5.00;78.70;;;;;;5055792;28;20020;-83
2022/02/24 06:51:44;;;;;;;10.35;4.75;;;4.90;78.70;;;;;;5073962;28;20024;-85
2022/02/24 06:54:10;;;;;;;15.57;6.40;;;4.90;79.00;;;;;;5073903;28;20050;-81
2022/02/24 06:56:36;;;;;;;11.65;5.50;;;4.90;79.10;;;;;;5073735;28;20090;-81
2022/02/24 06:59:01;;;;;;;9.38;4.78;;;4.80;79.20;;;;;;5073852;28;20029;-83
2022/02/24 07:01:27;;;;;;;12.32;5.75;;;4.90;79.20;;;;;;5055852;28;20032;-87
2022/02/24 07:03:52;;;;;;;10.93;4.38;;;4.90;79.00;;;;;;5073890;28;20079;-86
2022/02/24 07:06:18;;;;;;;11.90;4.53;;;5.00;79.00;;;;;;5056501;28;20426;-85
2022/02/24 07:08:43;;;;;;;9.93;4.40;;;5.10;78.90;;;;;;5073729;28;20024;-85
2022/02/24 07:11:09;;;;;;;8.70;5.05;;;5.00;78.60;;;;;;5074032;28;20056;-83
2022/02/24 07:13:35;;;;;;;9.07;4.50;;;5.20;78.30;;;;;;5073917;28;20063;-82
2022/02/24 07:16:00;;;;;;;8.68;3.28;;;5.20;78.10;;;;;;5074016;28;20044;-83
2022/02/24 07:18:26;;;;;;;8.20;4.60;;;5.30;78.30;;;;;;5073805;28;20469;-85
2022/02/24 07:20:51;;;;;;;12.18;4.80;;;5.40;77.80;;;;;;5073343;28;20441;-80
2022/02/24 07:23:17;;;;;;;16.38;4.32;;;5.50;78.10;;;;;;5057227;28;20020;-84
2022/02/24 07:25:43;;;;;;;11.30;4.38;;;6.10;87.80;;;;;;5074583;28;20035;-80
2022/02/24 07:28:08;;;;;;;9.02;4.00;;;6.70;87.60;;;;;;5072729;28;20047;-81
2022/02/24 07:30:36;;;;;;;9.27;4.45;;;7.20;84.70;;;;;;5072804;28;20522;-80
2022/02/24 07:33:01;;;;;;;9.40;3.55;;;7.70;78.60;;;;;;5073322;28;20044;-80
2022/02/24 07:35:27;;;;;;;3.28;1.92;;;8.10;74.90;;;;;;5054667;28;20056;-81
2022/02/24 07:37:52;;;;;;;4.63;2.15;;;8.70;73.10;;;;;;5072828;28;20024;-81
2022/02/24 07:40:18;;;;;;;5.70;2.70;;;9.10;70.80;;;;;;5073031;28;20021;-81
2022/02/24 07:42:44;;;;;;;4.85;2.60;;;9.30;65.70;;;;;;5073061;28;20024;-81
2022/02/24 07:45:10;;;;;;;7.18;2.90;;;9.40;66.30;;;;;;5072913;28;20020;-82
2022/02/24 07:47:36;;;;;;;5.15;2.42;;;9.70;65.40;;;;;;5072723;28;20021;-81
2022/02/24 07:50:03;;;;;;;5.13;2.55;;;9.80;63.50;;;;;;5072488;28;20093;-80
2022/02/24 07:52:28;;;;;;;5.20;2.60;;;9.80;63.70;;;;;;5072840;28;20047;-82
2022/02/24 07:54:54;;;;;;;5.50;2.65;;;10.00;62.50;;;;;;5072844;28;20528;-81
2022/02/24 07:57:21;;;;;;;5.13;2.08;;;10.00;62.00;;;;;;5072813;28;20020;-81
2022/02/24 07:59:46;;;;;;;5.18;2.30;;;10.20;61.10;;;;;;5072554;28;20461;-81
2022/02/24 08:02:12;;;;;;;5.07;1.98;;;10.30;60.00;;;;;;5072568;28;20032;-81
2022/02/24 08:04:37;;;;;;;15.60;6.00;;;10.50;60.20;;;;;;5072529;28;20035;-80
2022/02/24 08:07:03;;;;;;;5.53;2.70;;;10.50;59.10;;;;;;5072722;28;20178;-81
2022/02/24 08:09:29;;;;;;;9.05;2.65;;;10.70;58.70;;;;;;5072438;28;20505;-80
2022/02/24 08:14:39;;;;;;;9.68;2.35;;;11.00;57.10;;;;;;5078922;28;20027;-85
2022/02/24 08:17:05;;;;;;;6.47;2.10;;;10.90;56.20;;;;;;5077800;28;20017;-85
2022/02/24 08:19:31;;;;;;;4.53;1.80;;;10.70;56.60;;;;;;5077494;28;20096;-83
2022/02/24 08:21:57;;;;;;;5.45;2.15;;;10.60;57.30;;;;;;5059259;28;20466;-80
2022/02/24 08:24:22;;;;;;;4.40;2.03;;;10.60;57.10;;;;;;5058815;28;20070;-81
2022/02/24 08:26:48;;;;;;;5.45;2.28;;;10.50;56.50;;;;;;5076626;28;20020;-82
2022/02/24 08:29:14;;;;;;;6.63;2.53;;;10.40;55.90;;;;;;5076512;28;20062;-82
2022/02/24 08:31:39;;;;;;;5.53;1.92;;;10.30;56.70;;;;;;5076712;28;20013;-82
2022/02/24 08:34:05;;;;;;;4.78;1.55;;;10.10;56.30;;;;;;5076630;28;20025;-82
2022/02/24 08:36:31;;;;;;;5.78;1.40;;;10.30;56.10;;;;;;5076582;28;20034;-83
2022/02/24 08:38:56;;;;;;;3.25;1.58;;;10.30;55.60;;;;;;5076389;28;20496;-81
2022/02/24 08:41:22;;;;;;;4.30;1.40;;;10.30;55.60;;;;;;5058635;28;20033;-83
2022/02/24 08:43:48;;;;;;;4.03;1.23;;;10.20;55.60;;;;;;5076544;28;20174;-82
2022/02/24 08:46:14;;;;;;;5.00;1.33;;;10.10;55.70;;;;;;5076322;28;20079;-83
2022/02/24 08:48:41;;;;;;;2.95;1.42;;;10.10;56.30;;;;;;5076242;28;20031;-83
2022/02/24 08:51:06;;;;;;;6.72;1.40;;;10.20;56.20;;;;;;5069472;28;20044;-85
2022/02/24 08:53:32;;;;;;;3.95;1.55;;;10.20;56.20;;;;;;5046501;28;20021;-83
2022/02/24 08:55:58;;;;;;;4.18;1.90;;;10.20;56.30;;;;;;5070266;28;20025;-85
2022/02/24 08:58:23;;;;;;;4.40;1.75;;;10.20;56.40;;;;;;5077141;28;20056;-85
2022/02/24 09:00:49;;;;;;;3.63;1.27;;;10.30;55.70;;;;;;5077311;28;20025;-83
2022/02/24 09:03:15;;;;;;;3.72;1.55;;;10.40;56.20;;;;;;5079296;28;20025;-85
2022/02/24 09:05:42;;;;;;;3.95;1.88;;;10.60;55.10;;;;;;5079881;28;20044;-85
2022/02/24 09:08:07;;;;;;;5.82;1.42;;;10.80;55.20;;;;;;5077259;28;20016;-85
2022/02/24 09:10:33;;;;;;;6.30;1.50;;;10.90;54.80;;;;;;5076011;28;20043;-80
2022/02/24 09:12:59;;;;;;;5.40;1.85;;;11.00;54.10;;;;;;5076189;28;20021;-84
2022/02/24 09:15:26;;;;;;;3.50;1.27;;;11.00;53.60;;;;;;5075745;28;20361;-81
2022/02/24 09:17:51;;;;;;;4.15;1.25;;;11.10;53.80;;;;;;5075377;28;20169;-82
2022/02/24 09:20:17;;;;;;;5.47;1.35;;;11.20;52.80;;;;;;5075685;28;20461;-85
2022/02/24 09:22:43;;;;;;;4.65;1.48;;;11.20;52.60;;;;;;5057535;28;20028;-76
2022/02/24 09:25:09;;;;;;;2.65;1.20;;;11.30;52.40;;;;;;5074713;28;20055;-81
2022/02/24 09:27:36;;;;;;;3.75;1.48;;;11.40;52.80;;;;;;5075549;28;20473;-82
2022/02/24 09:30:03;;;;;;;4.00;1.38;;;11.60;52.40;;;;;;5074914;28;20435;-81
2022/02/24 09:32:29;;;;;;;4.55;1.48;;;11.70;51.90;;;;;;5074900;28;20047;-82
2022/02/24 09:34:56;;;;;;;5.80;1.50;;;11.80;51.70;;;;;;5075003;28;20021;-83
2022/02/24 09:37:21;;;;;;;4.72;1.23;;;11.90;50.90;;;;;;5075112;28;20036;-79
2022/02/24 09:39:47;;;;;;;3.95;1.50;;;11.90;50.00;;;;;;5074777;28;20021;-80
2022/02/24 09:42:13;;;;;;;2.72;1.25;;;11.80;49.90;;;;;;5074749;28;20024;-83
2022/02/24 09:44:39;;;;;;;2.97;1.30;;;11.90;50.00;;;;;;5075901;28;20020;-84
2022/02/24 09:47:05;;;;;;;4.88;1.30;;;11.90;48.60;;;;;;5074959;28;20020;-78
2022/02/24 09:49:33;;;;;;;4.25;1.75;;;11.90;48.90;;;;;;5074564;28;20036;-81
2022/02/24 09:51:59;;;;;;;2.92;1.20;;;11.90;48.80;;;;;;5074723;28;20031;-82
2022/02/24 09:54:25;;;;;;;2.78;1.20;;;11.90;48.50;;;;;;5074740;28;20392;-82
2022/02/24 09:56:50;;;;;;;4.38;1.60;;;11.90;48.60;;;;;;5074649;28;20029;-81
2022/02/24 09:59:16;;;;;;;2.47;1.13;;;12.00;48.00;;;;;;5074835;28;20020;-83
2022/02/24 10:01:45;;;;;;;4.32;1.50;;;12.00;47.20;;;;;;5074442;28;20036;-81
2022/02/24 10:04:10;;;;;;;4.30;1.65;;;12.00;47.20;;;;;;5074845;28;20366;-83
2022/02/24 10:06:41;;;;;;;5.63;1.55;;;12.30;46.10;;;;;;5074653;28;20142;-82
2022/02/24 10:09:08;;;;;;;2.78;1.20;;;12.60;45.20;;;;;;5074649;28;20025;-82
2022/02/24 10:11:35;;;;;;;2.05;0.77;;;12.60;45.20;;;;;;5075168;28;20029;-84
2022/02/24 10:14:04;;;;;;;3.17;1.17;;;12.70;43.00;;;;;;5074905;28;20032;-82
2022/02/24 10:16:31;;;;;;;3.33;1.10;;;12.60;43.60;;;;;;5074885;28;20048;-84
2022/02/24 10:18:57;;;;;;;3.28;1.00;;;12.50;42.90;;;;;;5075015;28;20048;-77
2022/02/24 10:21:23;;;;;;;2.75;1.27;;;12.40;43.10;;;;;;5059278;28;20060;-82
2022/02/24 10:23:49;;;;;;;2.80;1.42;;;12.60;44.00;;;;;;5054015;28;20037;-83
2022/02/24 10:26:17;;;;;;;3.67;1.15;;;12.60;41.90;;;;;;5054011;28;20494;-82
2022/02/24 10:28:50;;;;;;;4.30;1.20;;;12.60;42.00;;;;;;5053212;28;20486;-77
2022/02/24 10:31:20;;;;;;;2.58;1.00;;;12.50;41.30;;;;;;5052337;28;20071;-79
2022/02/24 10:33:52;;;;;;;2.80;1.30;;;12.50;42.20;;;;;;5053951;28;20025;-79
2022/02/24 10:36:20;;;;;;;5.38;1.00;;;12.70;41.70;;;;;;5053342;28;20409;-80
2022/02/24 10:38:59;;;;;;;2.63;1.25;;;12.60;39.80;;;;;;5053659;28;20024;-80
2022/02/24 10:41:42;;;;;;;3.17;1.38;;;12.80;40.00;;;;;;5053325;28;20025;-80
2022/02/24 10:44:19;;;;;;;5.40;1.10;;;12.90;39.80;;;;;;5035740;28;20119;-79
2022/02/24 10:47:13;;;;;;;3.00;1.35;;;13.10;38.00;;;;;;5053474;28;20036;-80
2022/02/24 10:49:41;;;;;;;2.38;1.13;;;13.20;37.80;;;;;;5053005;28;20037;-82
2022/02/24 10:52:13;;;;;;;1.60;1.00;;;13.60;36.60;;;;;;5053083;28;20025;-80
2022/02/24 10:54:39;;;;;;;2.33;0.90;;;13.60;36.30;;;;;;5052000;28;20021;-84
2022/02/24 10:57:21;;;;;;;4.00;1.17;;;13.70;35.70;;;;;;5053115;28;20064;-77
2022/02/24 10:59:47;;;;;;;3.63;1.17;;;13.90;35.30;;;;;;5053005;28;20064;-78
2022/02/24 11:02:14;;;;;;;2.90;1.48;;;13.80;35.50;;;;;;5051742;28;20017;-80
2022/02/24 11:04:40;;;;;;;4.05;1.25;;;13.40;34.60;;;;;;5052913;28;20025;-79
2022/02/24 11:07:07;;;;;;;5.07;1.35;;;13.30;34.60;;;;;;5053183;28;20048;-81
2022/02/24 11:09:35;;;;;;;5.10;1.13;;;13.10;34.50;;;;;;5052461;28;20028;-80
2022/02/24 11:12:02;;;;;;;4.07;1.25;;;12.70;34.80;;;;;;5052674;28;20032;-79
2022/02/24 11:14:30;;;;;;;2.92;1.00;;;12.70;35.50;;;;;;5034699;28;20354;-82
2022/02/24 11:16:56;;;;;;;4.07;1.25;;;12.80;35.60;;;;;;5052639;28;20025;-80
2022/02/24 11:19:22;;;;;;;2.80;1.38;;;12.80;35.20;;;;;;5052668;28;20032;-78
2022/02/24 11:21:48;;;;;;;7.72;1.38;;;12.70;36.10;;;;;;5052590;28;20470;-80
2022/02/24 11:24:13;;;;;;;5.82;1.15;;;12.80;36.90;;;;;;5051306;28;20053;-78
2022/02/24 11:26:43;;;;;;;4.50;1.45;;;13.10;36.60;;;;;;5036149;28;20488;-79
2022/02/24 11:29:39;;;;;;;3.45;1.45;;;13.20;36.10;;;;;;5052322;28;20029;-79
2022/02/24 11:32:11;;;;;;;3.60;1.13;;;13.10;36.70;;;;;;5049452;28;20112;-78
2022/02/24 11:35:00;;;;;;;4.50;1.55;;;13.10;37.20;;;;;;5052382;28;20044;-76
2022/02/24 11:37:31;;;;;;;5.55;1.52;;;13.40;36.80;;;;;;5052238;28;20086;-77
2022/02/24 11:40:02;;;;;;;6.28;1.27;;;13.40;36.80;;;;;;5052451;28;20025;-76
2022/02/24 11:42:30;;;;;;;4.03;1.38;;;13.40;37.20;;;;;;5052205;28;20021;-77
2022/02/24 11:44:56;;;;;;;4.63;1.63;;;13.40;38.00;;;;;;5051937;28;20033;-80
2022/02/24 11:47:22;;;;;;;5.95;1.58;;;13.40;38.10;;;;;;5051702;28;20064;-79
2022/02/24 11:49:54;;;;;;;3.00;1.30;;;13.70;37.50;;;;;;5051763;28;20033;-80
2022/02/24 11:52:22;;;;;;;4.78;1.65;;;13.60;37.10;;;;;;5052004;28;20359;-80
2022/02/24 11:54:48;;;;;;;4.78;1.52;;;13.80;37.50;;;;;;5051643;28;20033;-82
2022/02/24 11:57:35;;;;;;;5.18;1.40;;;13.60;37.40;;;;;;5051931;28;20159;-81
2022/02/24 12:00:18;;;;;;;4.68;1.50;;;13.60;36.90;;;;;;5051779;28;20525;-80
2022/02/24 12:02:44;;;;;;;4.13;1.58;;;13.50;36.90;;;;;;5052496;28;20095;-79
2022/02/24 12:05:17;;;;;;;4.57;1.83;;;13.50;37.20;;;;;;5052203;28;20354;-78
2022/02/24 12:08:01;;;;;;;2.92;1.27;;;13.80;37.10;;;;;;5052229;28;20037;-79
2022/02/24 12:10:49;;;;;;;5.00;1.60;;;13.90;36.90;;;;;;5034192;28;20071;-79
2022/02/24 12:13:30;;;;;;;5.28;1.70;;;13.80;37.20;;;;;;5051801;28;20024;-80
2022/02/24 12:16:22;;;;;;;7.05;2.10;;;13.50;37.40;;;;;;5051859;28;20017;-83
2022/02/24 12:18:50;;;;;;;6.97;1.10;;;13.30;37.50;;;;;;5050577;28;20025;-86
2022/02/24 12:21:33;;;;;;;2.83;1.27;;;13.40;37.20;;;;;;5052030;28;20017;-84
2022/02/24 12:24:11;;;;;;;5.38;1.85;;;13.50;37.70;;;;;;5034284;28;20132;-83
2022/02/24 12:26:37;;;;;;;6.18;1.65;;;13.50;37.50;;;;;;5052203;28;20028;-85
2022/02/24 12:29:26;;;;;;;8.60;1.73;;;13.50;37.40;;;;;;5051980;28;20069;-81
2022/02/24 12:32:00;;;;;;;7.82;1.27;;;13.60;37.40;;;;;;5052173;28;20086;-80
2022/02/24 12:34:27;;;;;;;5.15;1.58;;;13.50;37.10;;;;;;5052060;28;20092;-82
2022/02/24 12:37:03;;;;;;;5.38;1.38;;;13.50;36.90;;;;;;5052140;28;20029;-83
2022/02/24 12:39:30;;;;;;;7.70;1.30;;;13.40;35.90;;;;;;5052327;28;20021;-83
2022/02/24 12:41:56;;;;;;;4.10;1.15;;;13.20;36.50;;;;;;5034440;28;20548;-83
2022/02/24 12:44:25;;;;;;;3.30;1.40;;;13.00;36.30;;;;;;5052417;28;20053;-84
2022/02/24 12:46:51;;;;;;;7.68;1.30;;;13.00;36.50;;;;;;5034376;28;20493;-83
2022/02/24 12:49:18;;;;;;;5.25;1.25;;;12.90;36.70;;;;;;5052178;28;20041;-83
2022/02/24 12:51:44;;;;;;;3.63;1.20;;;12.90;36.80;;;;;;5052510;28;20043;-84